Latest Weather Observations for Lucas Heights

IDN60901

Issued at 6:45 am EDT Wednesday 22 October 2014 (issued every 10 minutes, with the page automatically refreshed every 10 minutes)

About weather observations | Map of Sydney area stations | Latest observations for Sydney area | Other Formats
Station Details ID: 066023 Name: LUCAS HEIGHTS AWS Lat: -34.05 Lon: 150.98 Height: 140.0 m
Data from the previous 72 hours. | See also: Recent months for locations in New South Wales
Date/Time
EDT
Tmp

°C
App
Tmp
°C
Dew
Point
°C
Rel
Hum
%
Delta-T

°C
Wind Press
QNH
hPa
Press
MSL
hPa
Rain
since
9 am
mm
Dir
 
Spd
km/h
Gust
km/h
Spd
kts
Gust
kts
22/06:30am 12.9 11.0 9.2 78 1.9 NW 9 13 5 7 1027.4 - 0.0
22/06:15am 12.9 11.4 9.2 78 1.9 NW 7 11 4 6 1027.4 - 0.0
22/06:00am 12.9 11.1 9.3 79 1.8 NW 9 13 5 7 1027.3 - 0.0
22/05:45am 12.8 11.3 9.3 79 1.8 NNW 7 11 4 6 1027.2 - 0.0
22/05:30am 12.6 11.1 9.1 79 1.8 NNW 7 9 4 5 1027.2 - 0.0
22/05:15am 12.6 11.1 9.2 80 1.7 NNW 7 9 4 5 1027.3 - 0.0
22/05:00am 12.6 11.1 9.1 79 1.8 NNW 7 11 4 6 1027.4 - 0.0
22/04:45am 12.6 11.3 9.1 79 1.8 NW 6 7 3 4 1027.4 - 0.0
22/04:30am 12.4 11.4 8.9 79 1.8 N 4 6 2 3 1027.6 - 0.0
22/04:15am 12.8 11.5 9.1 78 1.9 NNE 6 11 3 6 1027.8 - 0.0
22/04:00am 12.9 11.4 9.3 79 1.8 NNE 7 11 4 6 1028.1 - 0.0
22/03:45am 12.8 11.3 9.2 79 1.8 NNE 7 9 4 5 1028.2 - 0.0
22/03:30am 12.8 11.5 9.1 78 1.9 NNE 6 9 3 5 1028.3 - 0.0
22/03:15am 12.9 11.4 9.1 78 1.9 - 7 11 4 6 1028.4 - 0.0
22/03:00am 13.1 11.2 9.1 77 2.0 NNW 9 13 5 7 1028.7 - 0.0
22/02:45am 13.2 10.5 9.1 76 2.1 NW 13 15 7 8 1028.9 - 0.0
22/02:30am 13.0 10.7 8.9 76 2.1 N 11 15 6 8 1029.0 - 0.0
22/02:15am 13.2 11.3 8.9 75 2.2 N 9 13 5 7 1029.1 - 0.0
22/02:00am 13.4 11.5 9.1 75 2.2 NE 9 13 5 7 1029.3 - 0.0
22/01:45am 13.4 11.6 9.3 76 2.1 ENE 9 15 5 8 1029.6 - 0.0
22/01:30am 13.4 10.8 9.3 76 2.1 ENE 13 17 7 9 1029.9 - 0.0
22/01:15am 13.3 10.6 9.0 75 2.2 NE 13 15 7 8 1030.2 - 0.0
22/01:00am 13.3 10.6 9.0 75 2.2 NNE 13 19 7 10 1030.4 - 0.0
22/12:45am 12.9 10.5 8.5 74 2.2 NNE 11 13 6 7 1030.7 - 0.0
22/12:30am 13.2 10.7 8.4 72 2.4 N 11 15 6 8 1030.8 - 0.0
22/12:15am 13.9 11.6 8.9 72 2.5 N 11 13 6 7 1030.9 - 0.0
22/12:00am 14.1 11.4 9.1 72 2.6 NNE 13 17 7 9 1031.1 - 0.0
 
Date/Time
EDT
Tmp

°C
App
Tmp
°C
Dew
Point
°C
Rel
Hum
%
Delta-T

°C
Wind Press
QNH
hPa
Press
MSL
hPa
Rain
since
9 am
mm
Dir
 
Spd
km/h
Gust
km/h
Spd
kts
Gust
kts
21/11:45pm 14.2 11.9 9.0 71 2.7 NNE 11 17 6 9 1031.1 - 0.0
21/11:30pm 14.4 12.5 9.0 70 2.8 NNE 9 13 5 7 1031.2 - 0.0
21/11:15pm 14.6 12.7 9.0 69 2.9 NE 9 13 5 7 1031.3 - 0.0
21/11:00pm 14.5 13.0 9.0 69 2.8 NE 7 15 4 8 1031.4 - 0.0
21/10:45pm 14.5 13.0 9.1 70 2.8 E 7 11 4 6 1031.4 - 0.0
21/10:30pm 14.3 12.8 9.1 71 2.7 NE 7 9 4 5 1031.3 - 0.0
21/10:15pm 14.4 12.9 9.1 70 2.7 NNE 7 11 4 6 1031.4 - 0.0
21/10:00pm 14.5 12.6 9.1 70 2.8 NNE 9 13 5 7 1031.4 - 0.0
21/09:45pm 14.5 13.0 9.0 69 2.8 NE 7 11 4 6 1031.4 - 0.0
21/09:30pm 14.6 13.1 9.0 69 2.9 NE 7 9 4 5 1031.4 - 0.0
21/09:15pm 14.7 13.2 9.0 68 2.9 NE 7 13 4 7 1031.4 - 0.0
21/09:00pm 14.7 12.1 9.2 69 2.8 NE 13 22 7 12 1031.3 - 0.0
21/08:45pm 14.8 12.6 9.3 69 2.8 NE 11 19 6 10 1031.2 - 0.0
21/08:30pm 14.8 12.2 9.3 69 2.8 NE 13 19 7 10 1031.0 - 0.0
21/08:15pm 14.9 11.9 9.3 69 2.9 NE 15 19 8 10 1030.8 - 0.0
21/08:00pm 14.9 12.3 9.2 68 2.9 NE 13 19 7 10 1030.7 - 0.0
21/07:45pm 15.0 12.6 8.7 66 3.2 NE 11 15 6 8 1030.6 - 0.0
21/07:30pm 15.1 13.0 8.3 64 3.4 ENE 9 15 5 8 1030.5 - 0.0
21/07:15pm 15.2 13.1 8.1 62 3.6 ENE 9 15 5 8 1030.5 - 0.0
21/07:00pm 15.3 12.3 7.9 61 3.7 ENE 13 17 7 9 1030.4 - 0.0
21/06:45pm 15.4 12.1 8.1 61 3.7 ENE 15 19 8 10 1030.4 - 0.0
21/06:30pm 15.5 12.2 8.2 62 3.7 ENE 15 19 8 10 1030.3 - 0.0
21/06:15pm 15.6 12.7 8.3 62 3.7 NE 13 20 7 11 1030.3 - 0.0
21/06:00pm 15.7 12.8 8.3 61 3.8 ENE 13 19 7 10 1030.3 - 0.0
21/05:45pm 15.8 13.3 8.2 60 3.9 ENE 11 19 6 10 1030.3 - 0.0
21/05:30pm 15.9 13.0 8.2 60 3.9 ENE 13 19 7 10 1030.3 - 0.0
21/05:15pm 16.1 13.3 8.4 60 3.9 ENE 13 19 7 10 1030.3 - 0.0
21/05:00pm 16.1 12.9 8.4 60 3.9 E 15 22 8 12 1030.2 - 0.0
21/04:45pm 16.2 13.8 8.5 60 3.9 ENE 11 19 6 10 1030.1 - 0.0
21/04:30pm 16.4 13.2 8.5 59 4.1 E 15 20 8 11 1030.2 - 0.0
21/04:15pm 16.5 13.7 8.4 58 4.2 NE 13 22 7 12 1030.3 - 0.0
21/04:00pm 16.5 13.6 8.0 57 4.3 ENE 13 22 7 12 1030.4 - 0.0
21/03:45pm 16.6 14.1 8.0 57 4.4 E 11 22 6 12 1030.5 - 0.0
21/03:30pm 16.6 13.6 7.9 56 4.4 NE 13 22 7 12 1030.7 - 0.0
21/03:15pm 16.6 13.3 8.0 57 4.4 ENE 15 20 8 11 1030.9 - 0.0
21/03:00pm 16.4 13.5 8.0 57 4.3 ENE 13 20 7 11 1031.0 - 0.0
21/02:45pm 16.3 13.0 7.9 57 4.3 NE 15 22 8 12 1031.2 - 0.0
21/02:30pm 16.5 13.6 8.0 57 4.3 ENE 13 22 7 12 1031.4 - 0.0
21/02:15pm 16.5 13.2 8.1 57 4.3 ENE 15 22 8 12 1031.6 - 0.0
21/02:00pm 16.3 13.0 7.9 57 4.3 E 15 24 8 13 1031.8 - 0.0
21/01:45pm 16.6 13.3 8.2 57 4.3 E 15 24 8 13 1032.0 - 0.0
21/01:30pm 16.3 13.0 7.9 57 4.3 E 15 24 8 13 1032.2 - 0.0
21/01:15pm 16.3 12.6 7.8 57 4.3 E 17 20 9 11 1032.4 - 0.0
21/01:00pm 16.2 12.4 7.7 57 4.3 E 17 24 9 13 1032.5 - 0.0
21/12:45pm 16.1 12.7 7.8 58 4.2 E 15 22 8 12 1032.6 - 0.0
21/12:30pm 16.2 13.3 8.0 58 4.2 E 13 19 7 10 1032.7 - 0.0
21/12:15pm 16.3 13.0 8.2 58 4.1 ENE 15 22 8 12 1032.8 - 0.0
21/12:00pm 16.3 13.4 8.3 59 4.1 E 13 22 7 12 1032.9 - 0.0
21/11:45am 16.0 12.3 7.9 58 4.1 E 17 26 9 14 1033.0 - 0.0
21/11:30am 16.2 13.4 8.5 60 3.9 E 13 20 7 11 1033.0 - 0.0
21/11:15am 15.9 12.6 8.2 60 3.9 ESE 15 22 8 12 1033.1 - 0.0
21/11:00am 16.0 12.8 8.6 61 3.8 E 15 22 8 12 1033.1 - 0.0
21/10:45am 15.7 12.5 8.3 61 3.8 E 15 22 8 12 1033.1 - 0.0
21/10:30am 15.7 12.5 8.6 62 3.6 E 15 22 8 12 1033.2 - 0.0
21/10:15am 15.7 12.7 9.2 65 3.4 E 15 24 8 13 1033.1 - 0.0
21/10:00am 15.6 13.8 9.4 66 3.2 E 9 15 5 8 1033.1 - 0.0
21/09:45am 15.3 13.5 9.6 69 3.0 E 9 17 5 9 1033.0 - 0.0
21/09:30am 14.8 12.7 9.7 71 2.7 SE 11 17 6 9 1032.9 - 0.0
21/09:15am 14.4 12.6 9.5 72 2.5 SSE 9 13 5 7 1032.8 - 0.0
21/09:00am 14.3 12.2 9.6 73 2.4 SE 11 19 6 10 1032.7 - 0.2
21/08:45am 13.9 11.8 9.8 76 2.1 SE 11 15 6 8 1032.6 - 0.2
21/08:30am 13.7 11.3 10.0 78 1.9 SE 13 19 7 10 1032.5 - 0.2
21/08:15am 13.3 11.3 10.0 80 1.7 SE 11 19 6 10 1032.3 - 0.2
21/08:00am 13.2 10.8 10.0 81 1.7 SE 13 19 7 10 1032.1 - 0.2
21/07:45am 13.0 10.2 10.1 82 1.5 SE 15 19 8 10 1032.0 - 0.2
21/07:30am 12.8 10.8 10.1 84 1.4 SE 11 17 6 9 1032.0 - 0.2
21/07:15am 12.8 10.8 10.3 85 1.3 ESE 11 15 6 8 1031.8 - 0.2
21/07:00am 12.7 11.1 10.3 85 1.2 SE 9 17 5 9 1031.6 - 0.2
21/06:45am 12.6 10.6 10.3 86 1.2 SE 11 19 6 10 1031.4 - 0.2
21/06:30am 12.5 10.9 10.3 86 1.1 SE 9 17 5 9 1031.3 - 0.2
21/06:15am 12.4 10.4 10.2 86 1.1 S 11 17 6 9 1031.2 - 0.2
21/06:00am 12.4 10.4 10.3 87 1.1 SSE 11 19 6 10 1031.1 - 0.2
21/05:45am 12.4 11.2 10.4 88 1.0 SE 7 19 4 10 1031.0 - 0.2
21/05:30am 12.2 11.2 10.3 88 1.0 ESE 6 11 3 6 1030.9 - 0.2
21/05:15am 12.1 10.5 10.3 89 0.9 SE 9 15 5 8 1030.9 - 0.2
21/05:00am 12.1 10.1 10.3 89 0.9 SE 11 17 6 9 1030.9 - 0.2
21/04:45am 12.1 9.8 10.3 89 0.9 SSE 13 20 7 11 1031.0 - 0.2
21/04:30am 12.2 9.9 10.3 88 1.0 SSE 13 22 7 12 1031.1 - 0.2
21/04:15am 12.2 9.9 10.4 89 0.9 SE 13 20 7 11 1031.2 - 0.2
21/04:00am 12.2 9.5 10.4 89 0.9 SE 15 20 8 11 1031.3 - 0.2
21/03:45am 12.2 9.9 10.4 89 0.9 SE 13 19 7 10 1031.3 - 0.2
21/03:30am 12.3 10.4 10.5 89 0.9 SE 11 15 6 8 1031.4 - 0.2
21/03:15am 12.4 10.2 10.7 89 0.9 SE 13 19 7 10 1031.4 - 0.2
21/03:00am 12.3 9.7 10.6 89 0.9 SE 15 19 8 10 1031.5 - 0.2
21/02:45am 12.4 9.8 10.6 89 0.9 SE 15 20 8 11 1031.5 - 0.0
21/02:30am 12.5 10.7 10.8 89 0.9 SE 11 19 6 10 1031.7 - 0.0
21/02:15am 12.5 10.7 10.7 89 0.9 SE 11 19 6 10 1031.7 - 0.0
21/02:00am 12.6 10.8 10.7 88 1.0 SE 11 15 6 8 1031.8 - 0.0
21/01:45am 12.7 10.9 10.8 88 1.0 SE 11 15 6 8 1031.8 - 0.0
21/01:30am 12.8 10.6 10.7 87 1.1 SSE 13 15 7 8 1031.9 - 0.0
21/01:15am 12.8 10.9 10.5 86 1.2 SSE 11 15 6 8 1031.8 - 0.0
21/01:00am 13.1 10.8 10.6 85 1.3 SE 13 19 7 10 1031.9 - 0.0
21/12:45am 13.3 11.0 10.5 83 1.5 SSE 13 17 7 9 1032.0 - 0.0
21/12:30am 13.7 11.8 10.5 81 1.7 SSE 11 15 6 8 1032.1 - 0.0
21/12:15am 14.1 11.8 10.6 79 1.8 SE 13 19 7 10 1032.1 - 0.0
21/12:00am 14.3 12.5 10.7 79 1.9 SE 11 19 6 10 1032.2 - 0.0
 
Date/Time
EDT
Tmp

°C
App
Tmp
°C
Dew
Point
°C
Rel
Hum
%
Delta-T

°C
Wind Press
QNH
hPa
Press
MSL
hPa
Rain
since
9 am
mm
Dir
 
Spd
km/h
Gust
km/h
Spd
kts
Gust
kts
20/11:45pm 14.3 12.1 10.9 80 1.8 ESE 13 20 7 11 1032.1 - 0.0
20/11:30pm 14.2 12.0 10.9 80 1.8 E 13 17 7 9 1032.1 - 0.0
20/11:15pm 14.3 11.4 10.9 80 1.8 E 17 26 9 14 1032.1 - 0.0
20/11:00pm 14.2 11.6 10.7 79 1.9 ESE 15 22 8 12 1032.1 - 0.0
20/10:45pm 14.1 11.9 10.8 80 1.7 ESE 13 20 7 11 1032.1 - 0.0
20/10:30pm 14.0 11.4 10.8 81 1.7 ESE 15 24 8 13 1032.2 - 0.0
20/10:15pm 13.9 10.9 10.8 81 1.6 ESE 17 26 9 14 1032.2 - 0.0
20/10:00pm 14.1 10.5 10.7 80 1.8 ESE 20 30 11 16 1032.1 - 0.0
20/09:45pm 14.4 11.4 10.6 78 2.0 SE 17 26 9 14 1032.0 - 0.0
20/09:30pm 14.7 11.3 10.4 75 2.3 SSE 19 26 10 14 1032.0 - 0.0
20/09:15pm 14.8 11.4 10.6 76 2.2 ESE 19 26 10 14 1031.8 - 0.0
20/09:00pm 14.7 11.1 10.6 76 2.2 SE 20 30 11 16 1031.7 - 0.0
20/08:45pm 15.0 11.0 10.3 73 2.5 SE 22 32 12 17 1031.5 - 0.0
20/08:30pm 15.3 11.7 9.7 69 2.9 SE 19 30 10 16 1031.3 - 0.0
20/08:15pm 15.3 12.4 9.7 69 2.9 SE 15 24 8 13 1031.1 - 0.0
20/08:00pm 15.3 12.7 9.4 68 3.1 SE 13 20 7 11 1031.0 - 0.0
20/07:45pm 15.2 12.9 9.1 67 3.1 SSE 11 20 6 11 1030.8 - 0.0
20/07:30pm 15.2 12.5 9.1 67 3.1 SSE 13 26 7 14 1030.7 - 0.0
20/07:15pm 15.2 12.2 9.2 67 3.1 SSE 15 22 8 12 1030.6 - 0.0
20/07:00pm 15.1 12.2 9.6 69 2.9 SSE 15 28 8 15 1030.5 - 0.0
20/06:45pm 14.9 11.7 10.0 72 2.6 SSE 17 26 9 14 1030.4 - 0.0
20/06:30pm 14.9 10.8 10.1 73 2.5 SSE 22 39 12 21 1030.4 - 0.0
20/06:15pm 15.3 10.8 10.1 71 2.7 SSE 24 35 13 19 1030.2 - 0.0
20/06:00pm 15.6 11.8 9.9 69 3.0 SE 20 33 11 18 1030.1 - 0.0
20/05:45pm 15.7 11.5 9.7 67 3.1 SSE 22 37 12 20 1030.0 - 0.0
20/05:30pm 15.6 11.0 9.7 68 3.1 SSE 24 37 13 20 1030.0 - 0.0
20/05:15pm 15.7 10.0 9.7 67 3.1 SSE 30 41 16 22 1030.0 - 0.0
20/05:00pm 16.0 11.1 9.9 67 3.2 SSE 26 41 14 22 1029.9 - 0.0
20/04:45pm 16.0 11.1 9.9 67 3.2 SSE 26 44 14 24 1029.8 - 0.0
20/04:30pm 15.8 10.6 10.1 69 3.0 SSE 28 43 15 23 1029.8 - 0.0
20/04:15pm 15.7 10.2 10.4 71 2.8 SSE 30 44 16 24 1030.0 - 0.0
20/04:00pm 16.0 9.9 10.4 69 3.0 SSE 33 46 18 25 1029.9 - 0.0
20/03:45pm 15.9 11.7 11.0 72 2.6 SSE 24 43 13 23 1029.9 - 0.0
20/03:30pm 16.0 11.0 10.9 72 2.7 SSE 28 43 15 23 1030.0 - 0.0
20/03:15pm 16.5 12.0 11.3 71 2.8 SSE 26 44 14 24 1030.0 - 0.0
20/03:00pm 16.0 11.9 11.4 74 2.5 S 24 33 13 18 1030.3 - 0.0
20/02:45pm 15.9 12.7 12.0 77 2.1 SSE 20 30 11 16 1030.4 - 0.0
20/02:30pm 15.6 10.7 11.3 75 2.3 SSE 28 41 15 22 1030.5 - 0.0
20/02:15pm 16.4 13.4 12.4 77 2.2 S 20 32 11 17 1030.6 - 0.0
20/02:00pm 15.2 11.2 11.7 79 1.9 S 24 41 13 22 1030.7 - 0.0
20/01:45pm 15.9 11.5 11.8 76 2.2 SSE 26 37 14 20 1030.6 - 0.0
20/01:30pm 16.6 12.3 11.9 74 2.6 S 26 41 14 22 1030.4 - 0.0
20/01:15pm 16.7 13.2 12.1 74 2.5 S 22 35 12 19 1030.5 - 0.0
20/01:00pm 17.2 12.9 12.0 71 2.9 S 26 41 14 22 1030.5 - 0.0
20/12:45pm 17.6 13.5 11.6 68 3.3 S 24 50 13 27 1030.5 - 0.0
20/12:30pm 18.5 14.0 11.4 63 3.9 S 26 46 14 25 1030.4 - 0.0
20/12:15pm 18.6 14.1 11.4 63 4.0 S 26 44 14 24 1030.5 - 0.0
20/12:00pm 18.4 12.1 11.2 63 3.9 SSE 35 57 19 31 1030.6 - 0.0
20/11:45am 17.9 11.1 10.8 63 3.8 SSE 37 56 20 30 1030.6 - 0.0
20/11:30am 17.5 10.7 10.7 64 3.7 SSE 37 59 20 32 1030.6 - 0.0
20/11:15am 17.0 10.2 10.8 67 3.3 S 37 57 20 31 1030.6 - 0.0
20/11:00am 17.0 9.8 10.5 65 3.5 S 39 61 21 33 1030.5 - 0.0
20/10:45am 17.0 9.8 10.5 65 3.5 S 39 57 21 31 1030.4 - 0.0
20/10:30am 17.2 10.4 10.7 65 3.5 S 37 61 20 33 1030.2 - 0.0
20/10:15am 17.1 9.6 10.8 66 3.4 SSE 41 61 22 33 1030.0 - 0.0
20/10:00am 17.1 10.3 10.7 66 3.4 SSE 37 59 20 32 1029.8 - 0.0
20/09:45am 17.1 10.4 10.9 67 3.4 SSE 37 67 20 36 1029.5 - 0.0
20/09:30am 16.8 8.3 10.7 67 3.3 SSE 46 63 25 34 1029.0 - 0.0
20/09:15am 17.1 9.6 10.7 66 3.4 S 41 63 22 34 1028.6 - 0.0
20/09:00am 17.1 10.8 11.1 68 3.3 SSE 35 69 19 37 1028.3 - 0.0
20/08:45am 16.7 9.6 11.0 69 3.1 SSE 39 63 21 34 1028.0 - 0.0
20/08:30am 16.7 10.4 11.1 69 3.0 SSE 35 54 19 29 1027.6 - 0.0
20/08:15am 16.6 9.2 11.2 70 2.9 SSE 41 70 22 38 1027.1 - 0.0
20/08:00am 16.5 8.1 11.2 71 2.9 SSE 46 69 25 37 1026.8 - 0.0
20/07:45am 16.4 9.0 11.2 71 2.8 SSE 41 70 22 38 1026.4 - 0.0
20/07:30am 16.2 8.5 11.4 73 2.6 SSE 43 69 23 37 1026.0 - 0.0
20/07:15am 16.1 8.8 11.6 74 2.5 SSE 41 61 22 33 1025.7 - 0.0
20/07:00am 16.1 7.6 11.9 76 2.3 SSE 48 69 26 37 1025.4 - 0.0
20/06:45am 16.0 7.9 12.1 77 2.1 SSE 46 69 25 37 1025.0 - 0.0
20/06:30am 16.2 7.0 12.3 78 2.2 SSE 52 78 28 42 1024.6 - 0.0
20/06:15am 16.5 7.2 13.0 80 2.0 SSE 54 76 29 41 1024.2 - 0.0
20/06:00am 16.8 9.1 13.4 80 1.9 SSE 46 72 25 39 1023.8 - 0.0
20/05:45am 16.7 9.9 13.2 80 2.0 S 41 74 22 40 1023.6 - 0.0
20/05:30am 14.0 9.3 10.7 80 1.7 S 26 50 14 27 1022.9 - 0.0
20/05:15am 15.8 13.3 12.4 80 1.9 WSW 17 19 9 10 1021.6 - 0.0
20/05:00am 15.2 12.9 11.7 79 1.9 W 15 17 8 9 1021.4 - 0.0
20/04:45am 16.6 14.8 13.4 81 1.8 W 15 19 8 10 1021.2 - 0.0
20/04:30am 14.7 12.9 12.0 84 1.5 W 13 17 7 9 1021.2 - 0.0
20/04:15am 14.8 13.0 12.1 84 1.5 W 13 15 7 8 1021.3 - 0.0
20/04:00am 14.7 13.2 12.0 84 1.5 W 11 13 6 7 1021.4 - 0.0
20/03:45am 15.1 13.9 12.8 86 1.3 W 11 15 6 8 1021.5 - 0.0
20/03:30am 13.8 12.6 11.5 86 1.2 W 9 13 5 7 1021.8 - 0.0
20/03:15am 13.5 12.6 11.2 86 1.2 W 7 9 4 5 1021.9 - 0.0
20/03:00am 13.5 12.5 11.1 85 1.3 W 7 9 4 5 1022.0 - 0.0
20/02:45am 13.8 12.9 11.2 84 1.4 WNW 7 9 4 5 1022.0 - 0.0
20/02:30am 14.1 13.2 11.4 84 1.4 NW 7 9 4 5 1022.0 - 0.0
20/02:15am 14.7 13.2 12.0 84 1.5 NNW 11 13 6 7 1021.9 - 0.0
20/02:00am 14.5 13.0 11.9 84 1.4 NW 11 13 6 7 1022.3 - 0.0
20/01:45am 14.3 12.4 11.7 84 1.4 NW 13 13 7 7 1022.4 - 0.0
20/01:30am 14.2 12.2 11.4 83 1.5 NW 13 15 7 8 1022.4 - 0.0
20/01:15am 14.2 12.5 11.1 81 1.7 WNW 11 13 6 7 1022.5 - 0.0
20/01:00am 14.7 13.1 11.7 82 1.6 WNW 11 15 6 8 1022.7 - 0.0
20/12:45am 14.8 12.9 11.7 82 1.7 W 13 17 7 9 1023.0 - 0.0
20/12:30am 15.0 13.5 11.8 81 1.7 W 11 13 6 7 1023.2 - 0.0
20/12:15am 15.3 14.2 12.0 81 1.8 W 9 11 5 6 1023.3 - 0.0
20/12:00am 15.3 14.6 11.9 80 1.9 NW 7 9 4 5 1023.3 - 0.0
 
Date/Time
EDT
Tmp

°C
App
Tmp
°C
Dew
Point
°C
Rel
Hum
%
Delta-T

°C
Wind Press
QNH
hPa
Press
MSL
hPa
Rain
since
9 am
mm
Dir
 
Spd
km/h
Gust
km/h
Spd
kts
Gust
kts
19/11:45pm 15.3 14.5 11.7 79 2.0 N 7 9 4 5 1023.3 - 0.0
19/11:30pm 15.6 14.4 11.6 77 2.2 N 9 11 5 6 1023.4 - 0.0
19/11:15pm 16.2 15.1 11.9 75 2.4 N 9 11 5 6 1023.4 - 0.0
19/11:00pm 16.6 15.6 12.2 75 2.4 N 9 13 5 7 1023.3 - 0.0
19/10:45pm 16.7 15.3 12.2 75 2.5 NNE 11 13 6 7 1023.4 - 0.0
19/10:30pm 16.7 15.3 12.1 74 2.5 N 11 15 6 8 1023.5 - 0.0
19/10:15pm 16.9 15.4 11.9 72 2.8 N 11 15 6 8 1023.5 - 0.0
19/10:00pm 17.3 15.5 12.1 71 2.9 NNE 13 19 7 10 1023.5 - 0.0
19/09:45pm 17.4 15.6 12.1 71 2.9 NNE 13 17 7 9 1023.5 - 0.0
19/09:30pm 17.6 15.8 12.1 70 3.0 NE 13 17 7 9 1023.4 - 0.0
19/09:15pm 17.8 15.9 11.9 68 3.3 NE 13 19 7 10 1023.2 - 0.0
19/09:00pm 18.1 15.9 12.0 67 3.4 NE 15 19 8 10 1023.0 - 0.0
19/08:45pm 18.1 16.2 11.7 66 3.5 NE 13 19 7 10 1022.9 - 0.0
19/08:30pm 18.5 16.6 11.7 64 3.8 NE 13 19 7 10 1022.7 - 0.0
19/08:15pm 18.8 16.5 11.8 64 3.9 NE 15 19 8 10 1022.5 - 0.0
19/08:00pm 18.8 17.2 11.6 63 4.0 NE 11 17 6 9 1022.4 - 0.0
19/07:45pm 19.2 17.3 11.8 62 4.1 NE 13 20 7 11 1022.3 - 0.0
19/07:30pm 19.6 17.7 11.9 61 4.3 NE 13 17 7 9 1022.1 - 0.0
19/07:15pm 20.1 18.2 11.9 59 4.6 NE 13 19 7 10 1021.9 - 0.0
19/07:00pm 20.9 18.6 11.9 56 5.1 NE 15 19 8 10 1021.8 - 0.0
19/06:45pm 21.7 19.9 12.1 54 5.4 ENE 13 19 7 10 1021.6 - 0.0
19/06:30pm 22.2 19.9 11.9 52 5.8 NE 15 19 8 10 1021.5 - 0.0
19/06:15pm 22.8 20.6 12.0 50 6.1 NE 15 20 8 11 1021.4 - 0.0
19/06:00pm 23.3 20.7 12.0 49 6.4 ENE 17 20 9 11 1021.4 - 0.0
19/05:45pm 23.7 21.2 12.2 48 6.6 NE 17 20 9 11 1021.5 - 0.0
19/05:30pm 24.4 22.0 12.5 47 6.9 NE 17 22 9 12 1021.4 - 0.0
19/05:15pm 24.8 22.4 12.8 47 7.0 ENE 17 24 9 13 1021.4 - 0.0
19/05:00pm 25.6 23.4 13.2 46 7.3 ENE 17 22 9 12 1021.4 - 0.0
19/04:45pm 25.5 22.8 12.8 45 7.4 ENE 19 22 10 12 1021.4 - 0.0
19/04:30pm 25.9 23.5 12.7 44 7.7 NE 17 22 9 12 1021.5 - 0.0
19/04:15pm 26.6 24.4 12.2 40 8.4 NE 15 22 8 12 1021.5 - 0.0
19/04:00pm 27.6 25.3 7.5 28 10.8 NNE 9 19 5 10 1021.6 - 0.0
19/03:45pm 27.3 25.2 6.7 27 10.9 NNW 7 13 4 7 1021.9 - 0.0
19/03:30pm 27.1 24.2 6.5 27 10.9 NNW 11 19 6 10 1022.1 - 0.0
19/03:15pm 26.7 23.9 6.9 28 10.5 N 11 20 6 11 1022.2 - 0.0
19/03:00pm 26.5 24.0 6.6 28 10.5 N 9 19 5 10 1022.5 - 0.0
19/02:45pm 26.1 23.5 7.7 31 9.9 NNW 11 20 6 11 1022.8 - 0.0
19/02:30pm 25.7 23.0 7.4 31 9.7 N 11 22 6 12 1023.0 - 0.0
19/02:15pm 25.6 22.7 8.0 32 9.5 NNW 13 22 7 12 1023.1 - 0.0
19/02:00pm 25.4 22.6 8.7 34 9.1 NNW 13 22 7 12 1023.3 - 0.0
19/01:45pm 25.1 22.5 9.3 36 8.7 N 13 22 7 12 1023.6 - 0.0
19/01:30pm 24.4 21.4 9.3 38 8.2 N 15 26 8 14 1023.8 - 0.0
19/01:15pm 24.2 21.3 9.5 39 8.1 NW 15 26 8 14 1024.1 - 0.0
19/01:00pm 23.9 21.2 10.2 42 7.6 NNW 15 24 8 13 1024.3 - 0.0
19/12:45pm 23.3 20.4 9.8 42 7.4 NNW 15 22 8 12 1024.5 - 0.0
19/12:30pm 22.8 19.2 9.7 43 7.1 NNW 19 26 10 14 1024.8 - 0.0
19/12:15pm 22.6 19.4 10.1 45 6.9 NNW 17 26 9 14 1025.0 - 0.0
19/12:00pm 21.9 19.5 10.1 47 6.5 NW 13 20 7 11 1025.3 - 0.0
19/11:45am 21.3 18.9 10.1 48 6.1 NNW 13 22 7 12 1025.6 - 0.0
19/11:30am 20.9 18.2 10.2 50 5.8 NNW 15 24 8 13 1026.0 - 0.0
19/11:15am 20.2 17.0 10.1 52 5.5 NNW 17 26 9 14 1026.3 - 0.0
19/11:00am 19.8 17.1 10.5 55 5.1 NNW 15 26 8 14 1026.6 - 0.0
19/10:45am 19.1 15.9 10.1 56 4.8 NW 17 28 9 15 1026.8 - 0.0
19/10:30am 18.7 16.4 10.5 59 4.4 NNW 13 20 7 11 1027.1 - 0.0
19/10:15am 17.7 14.9 10.0 60 4.1 NNW 15 22 8 12 1027.3 - 0.0
19/10:00am 17.2 14.8 9.9 62 3.9 NW 13 20 7 11 1027.5 - 0.0
19/09:45am 16.8 14.4 9.9 64 3.7 NW 13 19 7 10 1027.6 - 0.0
19/09:30am 16.2 13.7 9.8 66 3.4 NW 13 17 7 9 1027.6 - 0.0
19/09:15am 15.5 13.3 9.5 67 3.1 NW 11 17 6 9 1027.5 - 0.0
19/09:00am 15.0 12.5 9.7 70 2.8 NW 13 19 7 10 1027.5 - 0.0
19/08:45am 14.2 12.1 9.6 74 2.4 NW 11 19 6 10 1027.5 - 0.0
19/08:30am 13.5 11.3 9.3 76 2.2 NW 11 19 6 10 1027.5 - 0.0
19/08:15am 13.0 10.3 8.9 76 2.1 WNW 13 19 7 10 1027.5 - 0.0
19/08:00am 12.9 10.2 9.0 77 2.0 WNW 13 17 7 9 1027.5 - 0.0
19/07:45am 12.6 9.5 8.8 77 1.9 W 15 19 8 10 1027.5 - 0.0
19/07:30am 12.3 9.9 8.8 79 1.8 WNW 11 15 6 8 1027.3 - 0.0
19/07:15am 12.0 9.6 8.8 81 1.6 WNW 11 15 6 8 1027.1 - 0.0
19/07:00am 11.7 9.4 9.0 83 1.4 WNW 11 15 6 8 1027.0 - 0.0

Latest Capital City Observations: Canberra | Sydney | Melbourne | Brisbane | Adelaide | Perth | Hobart | Darwin

Other Formats:

Comma delimited format used in spreadsheet applications
http://www.bom.gov.au/fwo/IDN60901/IDN60901.95757.axf

JavaScript Object Notation format (JSON) in row-major order
http://www.bom.gov.au/fwo/IDN60901/IDN60901.95757.json